createdAt,value
2023-01-18T00:01:50.212Z,6.03
2023-01-18T00:05:12.144Z,6.87
2023-01-18T00:08:35.923Z,9.67
2023-01-18T00:11:58.896Z,8.53
2023-01-18T00:15:20.709Z,9.73
2023-01-18T00:18:42.137Z,9.33
2023-01-18T00:22:03.809Z,11.27
2023-01-18T00:25:25.644Z,6.23
2023-01-18T00:28:48.707Z,6.43
2023-01-18T00:32:10.522Z,6.70
2023-01-18T00:35:32.159Z,5.70
2023-01-18T00:38:54.287Z,5.63
2023-01-18T00:42:33.053Z,10.80
2023-01-18T00:45:55.898Z,5.40
2023-01-18T00:49:17.534Z,6.00
2023-01-18T00:52:40.428Z,5.63
2023-01-18T00:56:02.432Z,5.57
2023-01-18T00:59:24.129Z,5.87
2023-01-18T01:02:47.219Z,7.70
2023-01-18T01:06:33.291Z,8.87
2023-01-18T01:09:57.255Z,7.43
2023-01-18T01:13:38.316Z,5.33
2023-01-18T01:17:17.079Z,5.17
2023-01-18T01:20:57.358Z,9.40
2023-01-18T01:24:36.131Z,6.80
2023-01-18T01:27:57.778Z,5.53
2023-01-18T01:31:21.095Z,4.77
2023-01-18T01:34:42.923Z,4.97
2023-01-18T01:38:06.574Z,7.43
2023-01-18T01:41:30.188Z,6.43
2023-01-18T01:44:52.821Z,6.40
2023-01-18T01:48:14.908Z,9.20
2023-01-18T01:51:38.982Z,10.70
2023-01-18T01:55:05.714Z,7.10
2023-01-18T01:58:30.365Z,10.00
2023-01-18T02:01:52.008Z,9.23
2023-01-18T02:05:16.375Z,10.27
2023-01-18T02:08:38.621Z,6.97
2023-01-18T02:12:03.039Z,7.87
2023-01-18T02:15:34.281Z,11.23
2023-01-18T02:19:03.835Z,8.17
2023-01-18T02:22:39.157Z,9.33
2023-01-18T02:26:18.769Z,7.63
2023-01-18T02:29:52.307Z,5.93
2023-01-18T02:33:20.341Z,7.67
2023-01-18T02:36:50.271Z,8.57
2023-01-18T02:40:17.517Z,10.10
2023-01-18T02:43:59.869Z,8.00
2023-01-18T02:47:23.619Z,7.53
2023-01-18T02:50:45.329Z,11.23
2023-01-18T02:54:10.130Z,10.47
2023-01-18T02:57:32.310Z,9.03
2023-01-18T03:00:59.971Z,9.53
2023-01-18T03:04:26.291Z,8.00
2023-01-18T03:07:54.418Z,7.20
2023-01-18T03:11:21.876Z,9.00
2023-01-18T03:14:52.609Z,8.87
2023-01-18T03:18:20.443Z,7.87
2023-01-18T03:21:48.602Z,9.37
2023-01-18T03:25:12.927Z,11.77
2023-01-18T03:28:54.497Z,7.90
2023-01-18T03:32:36.848Z,13.47
2023-01-18T03:36:00.855Z,10.13
2023-01-18T03:39:29.921Z,13.40
2023-01-18T03:42:56.920Z,7.20
2023-01-18T03:46:23.244Z,8.73
2023-01-18T03:49:44.941Z,9.93
2023-01-18T03:53:14.681Z,10.43
2023-01-18T03:56:43.407Z,10.27
2023-01-18T04:00:06.938Z,8.37
2023-01-18T04:03:34.198Z,8.53
2023-01-18T04:06:57.917Z,9.17
2023-01-18T04:10:19.297Z,8.77
2023-01-18T04:13:42.009Z,9.67
2023-01-18T04:17:03.782Z,8.43
2023-01-18T04:20:25.640Z,9.97
2023-01-18T04:23:47.338Z,8.40
2023-01-18T04:27:09.234Z,7.47
2023-01-18T04:30:32.390Z,8.30
2023-01-18T04:33:54.250Z,8.50
2023-01-18T04:37:16.094Z,8.43
2023-01-18T04:40:37.362Z,9.80
2023-01-18T04:43:59.331Z,9.93
2023-01-18T04:47:22.208Z,8.07
2023-01-18T04:50:46.533Z,11.27
2023-01-18T04:54:08.274Z,10.67
2023-01-18T04:57:29.466Z,9.33
2023-01-18T05:00:51.236Z,8.73
2023-01-18T05:04:14.623Z,9.70
2023-01-18T05:07:36.234Z,10.87
2023-01-18T05:11:02.663Z,9.87
2023-01-18T05:14:24.166Z,11.03
2023-01-18T05:17:45.483Z,10.37
2023-01-18T05:21:08.253Z,10.03
2023-01-18T05:24:30.266Z,9.13
2023-01-18T05:27:51.800Z,11.30
2023-01-18T05:31:13.892Z,10.20
2023-01-18T05:34:35.307Z,12.30
2023-01-18T05:37:58.653Z,10.43
2023-01-18T05:41:21.073Z,11.30
2023-01-18T05:44:42.642Z,18.17
2023-01-18T05:48:05.014Z,18.90
2023-01-18T05:51:27.178Z,13.27
2023-01-18T05:54:50.212Z,11.10
2023-01-18T05:58:11.968Z,12.03
2023-01-18T06:01:33.671Z,13.30
2023-01-18T06:04:55.484Z,13.80
2023-01-18T06:08:17.048Z,14.50
2023-01-18T06:11:39.846Z,13.93
2023-01-18T06:15:01.818Z,13.10
2023-01-18T06:18:24.220Z,10.77
2023-01-18T06:21:45.661Z,15.50
2023-01-18T06:25:08.143Z,23.73
2023-01-18T06:28:31.162Z,25.73
2023-01-18T06:31:52.529Z,19.57
2023-01-18T06:35:14.413Z,18.40
2023-01-18T06:38:36.016Z,17.53
2023-01-18T06:41:57.971Z,19.60
2023-01-18T06:45:22.158Z,13.73
2023-01-18T06:48:43.870Z,18.27
2023-01-18T06:52:05.815Z,16.83
2023-01-18T06:55:27.272Z,17.23
2023-01-18T06:58:49.113Z,15.67
2023-01-18T07:02:15.314Z,14.03
2023-01-18T07:05:37.269Z,11.97
2023-01-18T07:08:59.015Z,10.20
2023-01-18T07:12:20.841Z,13.33
2023-01-18T07:15:42.225Z,13.33
2023-01-18T07:19:06.670Z,12.53
2023-01-18T07:22:28.247Z,10.77
2023-01-18T07:25:50.205Z,12.23
2023-01-18T07:29:11.942Z,13.23
2023-01-18T07:32:33.706Z,13.33
2023-01-18T07:35:59.027Z,14.00
2023-01-18T07:39:20.860Z,12.40
2023-01-18T07:42:42.698Z,14.87
2023-01-18T07:46:05.179Z,16.50
2023-01-18T07:49:27.125Z,15.23
2023-01-18T07:52:50.356Z,11.20
2023-01-18T07:56:14.950Z,18.17
2023-01-18T07:59:36.700Z,14.47
2023-01-18T08:02:59.353Z,17.23
2023-01-18T08:06:22.429Z,23.33
2023-01-18T08:09:45.855Z,20.53
2023-01-18T08:13:10.207Z,15.07
2023-01-18T08:16:31.884Z,14.93
2023-01-18T08:19:54.022Z,14.00
2023-01-18T08:23:16.275Z,11.83
2023-01-18T08:26:39.339Z,14.00
2023-01-18T08:30:01.148Z,14.23
2023-01-18T08:33:22.971Z,15.70
2023-01-18T08:36:44.753Z,13.90
2023-01-18T08:40:07.701Z,19.30
2023-01-18T08:43:30.484Z,25.30
2023-01-18T08:46:52.161Z,23.13
2023-01-18T08:50:13.520Z,21.77
2023-01-18T08:53:35.361Z,23.73
2023-01-18T08:56:57.286Z,22.87
2023-01-18T09:00:23.293Z,19.70
2023-01-18T09:03:47.361Z,20.73
2023-01-18T09:07:08.979Z,18.47
2023-01-18T09:10:30.711Z,22.10
2023-01-18T09:14:00.691Z,21.83
2023-01-18T09:17:23.951Z,24.10
2023-01-18T09:20:45.482Z,21.90
2023-01-18T09:24:08.483Z,21.60
2023-01-18T09:27:30.158Z,30.40
2023-01-18T09:30:51.842Z,24.73
2023-01-18T09:34:19.666Z,26.90
2023-01-18T09:37:41.640Z,29.53
2023-01-18T09:41:04.362Z,19.40
2023-01-18T09:44:30.612Z,18.10
2023-01-18T09:48:00.407Z,16.93
2023-01-18T09:51:28.373Z,20.07
2023-01-18T09:54:57.353Z,14.10
2023-01-18T09:58:41.539Z,14.80
2023-01-18T10:02:04.596Z,13.37
2023-01-18T10:05:29.347Z,16.30
2023-01-18T10:08:58.846Z,14.97
2023-01-18T10:12:27.712Z,15.33
2023-01-18T10:15:49.619Z,16.83
2023-01-18T10:19:20.432Z,15.63
2023-01-18T10:22:49.785Z,13.93
2023-01-18T10:26:19.810Z,11.70
2023-01-18T10:29:55.579Z,13.43
2023-01-18T10:33:21.621Z,14.80
2023-01-18T10:36:46.953Z,11.10
2023-01-18T10:40:13.453Z,12.70
2023-01-18T10:43:38.833Z,15.60
2023-01-18T10:47:02.659Z,16.80
2023-01-18T10:50:38.702Z,13.97
2023-01-18T10:54:00.186Z,13.43
2023-01-18T10:57:25.491Z,12.30
2023-01-18T11:00:54.886Z,17.53
2023-01-18T11:04:22.259Z,11.93
2023-01-18T11:07:44.001Z,12.97
2023-01-18T11:11:08.027Z,13.27
2023-01-18T11:14:32.003Z,11.53
2023-01-18T11:18:12.001Z,8.80
2023-01-18T11:21:45.964Z,12.13
2023-01-18T11:25:17.530Z,9.60
2023-01-18T11:28:41.117Z,10.77
2023-01-18T11:32:05.373Z,7.77
2023-01-18T11:35:33.477Z,9.17
2023-01-18T11:38:55.307Z,8.87
2023-01-18T11:42:30.255Z,12.57
2023-01-18T11:45:59.092Z,11.37
2023-01-18T11:49:42.234Z,10.17
2023-01-18T11:53:16.566Z,9.30
2023-01-18T11:56:43.542Z,11.03
2023-01-18T12:00:05.527Z,12.20
2023-01-18T12:03:47.385Z,15.57
2023-01-18T12:07:27.099Z,10.23
2023-01-18T12:11:11.449Z,8.37
2023-01-18T12:14:48.243Z,10.10
2023-01-18T12:18:27.487Z,9.60
2023-01-18T12:22:08.467Z,11.87
2023-01-18T12:25:47.082Z,7.70
2023-01-18T12:29:42.354Z,13.50
2023-01-18T12:33:16.628Z,9.40
2023-01-18T12:36:59.165Z,8.57
2023-01-18T12:40:37.118Z,7.40
2023-01-18T12:44:17.170Z,5.93
2023-01-18T12:47:47.623Z,9.53
2023-01-18T12:51:14.643Z,9.67
2023-01-18T12:54:41.365Z,9.73
2023-01-18T12:58:04.106Z,11.97
2023-01-18T13:01:31.037Z,8.03
2023-01-18T13:04:56.648Z,13.20
2023-01-18T13:08:24.975Z,11.57
2023-01-18T13:11:47.328Z,8.17
2023-01-18T13:15:21.652Z,7.60
2023-01-18T13:18:51.874Z,9.53
2023-01-18T13:22:24.909Z,8.90
2023-01-18T13:25:52.849Z,9.13
2023-01-18T13:29:25.806Z,9.73
2023-01-18T13:32:49.554Z,12.00
2023-01-18T13:36:14.678Z,8.23
2023-01-18T13:39:47.486Z,7.80
2023-01-18T13:43:35.130Z,9.63
2023-01-18T13:46:58.793Z,9.07
2023-01-18T13:50:45.234Z,9.27
2023-01-18T13:54:08.716Z,5.57
2023-01-18T13:57:33.399Z,7.03
2023-01-18T14:00:55.786Z,8.40
2023-01-18T14:04:31.809Z,9.70
2023-01-18T14:07:57.925Z,7.43
2023-01-18T14:11:26.004Z,11.87
2023-01-18T14:14:58.903Z,13.57
2023-01-18T14:18:26.213Z,8.97
2023-01-18T14:22:11.892Z,10.87
2023-01-18T14:25:51.510Z,11.87
2023-01-18T14:29:17.396Z,7.97
2023-01-18T14:32:58.372Z,9.10
2023-01-18T14:36:25.155Z,13.87
2023-01-18T14:39:46.874Z,14.17
2023-01-18T14:43:16.584Z,10.07
2023-01-18T14:46:38.435Z,11.07
2023-01-18T14:50:03.912Z,8.00
2023-01-18T14:53:29.028Z,9.53
2023-01-18T14:56:51.117Z,7.17
2023-01-18T15:00:18.685Z,10.87
2023-01-18T15:03:40.370Z,13.03
2023-01-18T15:07:06.949Z,12.63
2023-01-18T15:10:28.816Z,12.87
2023-01-18T15:13:52.968Z,10.00
2023-01-18T15:17:21.886Z,7.73
2023-01-18T15:20:53.815Z,8.30
2023-01-18T15:24:19.707Z,14.30
2023-01-18T15:27:42.283Z,8.90
2023-01-18T15:31:12.280Z,12.77
2023-01-18T15:34:36.997Z,11.80
2023-01-18T15:37:58.988Z,10.90
2023-01-18T15:41:21.844Z,9.77
2023-01-18T15:44:47.499Z,11.03
2023-01-18T15:48:14.299Z,7.33
2023-01-18T15:51:57.134Z,15.00
2023-01-18T15:55:23.391Z,9.67
2023-01-18T15:58:50.044Z,13.20
2023-01-18T16:02:19.959Z,10.47
2023-01-18T16:05:41.246Z,11.13
2023-01-18T16:09:10.515Z,13.97
2023-01-18T16:12:34.634Z,9.77
2023-01-18T16:16:23.687Z,9.17
2023-01-18T16:19:47.811Z,10.10
2023-01-18T16:23:17.360Z,6.10
2023-01-18T16:26:43.755Z,11.40
2023-01-18T16:30:19.131Z,10.27
2023-01-18T16:33:42.197Z,8.47
2023-01-18T16:37:05.274Z,10.90
2023-01-18T16:40:27.201Z,6.97
2023-01-18T16:43:49.065Z,11.93
2023-01-18T16:47:11.823Z,8.20
2023-01-18T16:50:35.416Z,10.37
2023-01-18T16:53:57.503Z,22.43
2023-01-18T16:57:21.376Z,19.53
2023-01-18T17:00:50.615Z,18.83
2023-01-18T17:04:12.795Z,12.27
2023-01-18T17:07:36.149Z,17.17
2023-01-18T17:10:57.759Z,18.73
2023-01-18T17:14:21.155Z,16.70
2023-01-18T17:17:43.350Z,16.07
2023-01-18T17:21:05.410Z,8.17
2023-01-18T17:24:28.773Z,8.93
2023-01-18T17:27:51.553Z,9.93
2023-01-18T17:31:13.179Z,13.73
2023-01-18T17:34:34.831Z,16.83
2023-01-18T17:38:04.673Z,15.47
2023-01-18T17:41:30.008Z,10.93
2023-01-18T17:45:02.375Z,14.77
2023-01-18T17:48:24.260Z,9.67
2023-01-18T17:51:45.693Z,15.13
2023-01-18T17:55:09.666Z,11.57
2023-01-18T17:58:32.664Z,13.87
2023-01-18T18:01:54.528Z,12.47
2023-01-18T18:05:16.304Z,11.00
2023-01-18T18:08:38.288Z,12.20
2023-01-18T18:11:59.851Z,8.37
2023-01-18T18:15:23.515Z,10.70
2023-01-18T18:18:45.409Z,6.80
2023-01-18T18:22:07.132Z,8.67
2023-01-18T18:25:28.547Z,9.43
2023-01-18T18:28:51.092Z,10.97
2023-01-18T18:32:14.734Z,12.47
2023-01-18T18:35:36.530Z,9.47
2023-01-18T18:39:01.852Z,6.97
2023-01-18T18:42:23.105Z,10.17
2023-01-18T18:45:46.715Z,7.93
2023-01-18T18:49:09.602Z,8.07
2023-01-18T18:52:31.545Z,10.77
2023-01-18T18:55:59.338Z,13.13
2023-01-18T18:59:21.254Z,25.70
2023-01-18T19:02:43.215Z,19.57
2023-01-18T19:06:06.783Z,8.93
2023-01-18T19:09:28.623Z,11.27
2023-01-18T19:12:50.359Z,12.87
2023-01-18T19:16:12.506Z,16.67
2023-01-18T19:19:34.306Z,12.10
2023-01-18T19:22:58.360Z,8.47
2023-01-18T19:26:20.016Z,8.43
2023-01-18T19:29:41.568Z,10.10
2023-01-18T19:33:03.904Z,8.43
2023-01-18T19:36:26.542Z,7.47
2023-01-18T19:39:50.027Z,10.10
2023-01-18T19:43:11.826Z,8.60
2023-01-18T19:46:34.429Z,8.27
2023-01-18T19:49:57.315Z,8.47
2023-01-18T19:53:19.003Z,8.17
2023-01-18T19:56:41.661Z,9.03
2023-01-18T20:00:06.958Z,12.07
2023-01-18T20:03:34.474Z,11.23
2023-01-18T20:06:56.356Z,12.47
2023-01-18T20:10:20.363Z,11.27
2023-01-18T20:13:48.490Z,12.27
2023-01-18T20:17:10.659Z,14.80
2023-01-18T20:20:33.081Z,21.37
2023-01-18T20:23:56.038Z,14.37
2023-01-18T20:27:18.056Z,15.07
2023-01-18T20:30:41.512Z,15.10
2023-01-18T20:34:03.602Z,17.73
2023-01-18T20:37:25.458Z,17.53
2023-01-18T20:40:47.243Z,17.73
2023-01-18T20:44:09.009Z,15.17
2023-01-18T20:47:31.974Z,12.83
2023-01-18T20:50:53.874Z,21.87
2023-01-18T20:54:15.867Z,11.90
2023-01-18T20:57:37.305Z,12.93
2023-01-18T21:01:05.772Z,9.83
2023-01-18T21:04:28.749Z,13.47
2023-01-18T21:07:50.117Z,11.20
2023-01-18T21:11:13.976Z,10.77
2023-01-18T21:14:35.286Z,11.30
2023-01-18T21:17:57.258Z,13.40
2023-01-18T21:21:21.053Z,10.73
2023-01-18T21:24:43.091Z,10.93
2023-01-18T21:28:04.773Z,14.50
2023-01-18T21:31:26.296Z,11.63
2023-01-18T21:34:48.034Z,7.83
2023-01-18T21:38:11.118Z,12.57
2023-01-18T21:41:50.137Z,10.23
2023-01-18T21:45:30.189Z,9.13
2023-01-18T21:48:51.758Z,9.07
2023-01-18T21:52:31.238Z,9.10
2023-01-18T21:55:54.148Z,6.77
2023-01-18T21:59:15.789Z,9.43
2023-01-18T22:02:37.848Z,9.43
2023-01-18T22:06:02.211Z,8.73
2023-01-18T22:09:23.866Z,9.43
2023-01-18T22:12:46.485Z,10.53
2023-01-18T22:16:08.990Z,8.97
2023-01-18T22:19:30.626Z,9.60
2023-01-18T22:22:51.981Z,9.33
2023-01-18T22:26:14.273Z,9.57
2023-01-18T22:29:37.027Z,11.67
2023-01-18T22:32:59.170Z,9.47
2023-01-18T22:36:20.554Z,9.10
2023-01-18T22:39:42.261Z,9.57
2023-01-18T22:43:03.969Z,7.97
2023-01-18T22:46:27.002Z,8.60
2023-01-18T22:49:48.917Z,6.00
2023-01-18T22:53:10.578Z,8.13
2023-01-18T22:56:32.322Z,7.43
2023-01-18T22:59:54.150Z,10.80
2023-01-18T23:03:18.271Z,10.30
2023-01-18T23:06:45.675Z,7.47
2023-01-18T23:10:07.689Z,7.57
2023-01-18T23:13:30.211Z,9.57
2023-01-18T23:17:09.852Z,9.57
2023-01-18T23:20:32.741Z,10.50
2023-01-18T23:23:54.440Z,12.20
2023-01-18T23:27:16.149Z,10.90
2023-01-18T23:30:37.875Z,10.03
2023-01-18T23:33:59.850Z,10.17
2023-01-18T23:37:23.961Z,9.93
2023-01-18T23:41:02.772Z,9.53
2023-01-18T23:44:41.867Z,6.43
2023-01-18T23:48:25.411Z,9.33
2023-01-18T23:52:04.303Z,7.73
2023-01-18T23:55:27.118Z,11.37
2023-01-18T23:58:48.238Z,10.63
